createdAt,value
2017-12-05T00:00:11.475Z,89.62
2017-12-05T00:00:52.047Z,89.62
2017-12-05T00:01:32.617Z,89.62
2017-12-05T00:02:13.176Z,89.62
2017-12-05T00:02:53.750Z,89.81
2017-12-05T00:03:34.314Z,89.62
2017-12-05T00:04:14.881Z,89.53
2017-12-05T00:04:55.448Z,89.91
2017-12-05T00:05:36.000Z,89.43
2017-12-05T00:06:16.585Z,89.62
2017-12-05T00:06:57.144Z,89.91
2017-12-05T00:07:37.704Z,89.53
2017-12-05T00:08:18.277Z,89.43
2017-12-05T00:08:58.887Z,89.72
2017-12-05T00:09:39.460Z,90
2017-12-05T00:10:20.023Z,90.19
2017-12-05T00:11:00.636Z,90.1
2017-12-05T00:11:41.202Z,89.72
2017-12-05T00:12:21.768Z,89.72
2017-12-05T00:13:02.340Z,89.72
2017-12-05T00:13:42.904Z,90.1
2017-12-05T00:14:23.520Z,89.81
2017-12-05T00:15:04.109Z,89.81
2017-12-05T00:15:44.665Z,89.81
2017-12-05T00:16:25.235Z,90
2017-12-05T00:17:05.816Z,90
2017-12-05T00:17:46.398Z,90.1
2017-12-05T00:18:26.954Z,90.19
2017-12-05T00:19:07.521Z,90.38
2017-12-05T00:19:48.080Z,90.1
2017-12-05T00:20:28.651Z,89.91
2017-12-05T00:21:09.218Z,89.72
2017-12-05T00:21:49.794Z,90
2017-12-05T00:22:30.360Z,90
2017-12-05T00:23:10.946Z,89.91
2017-12-05T00:23:51.507Z,90
2017-12-05T00:24:32.092Z,90.38
2017-12-05T00:25:12.665Z,90.38
2017-12-05T00:25:53.220Z,90
2017-12-05T00:26:33.794Z,90.1
2017-12-05T00:27:14.385Z,89.81
2017-12-05T00:27:54.966Z,89.91
2017-12-05T00:28:35.529Z,89.72
2017-12-05T00:29:16.104Z,90.1
2017-12-05T00:29:56.668Z,89.91
2017-12-05T00:30:37.252Z,89.81
2017-12-05T00:31:17.804Z,90.1
2017-12-05T00:31:58.371Z,89.81
2017-12-05T00:32:38.927Z,90.48
2017-12-05T00:33:19.500Z,90.38
2017-12-05T00:34:00.060Z,90.48
2017-12-05T00:34:40.637Z,90.48
2017-12-05T00:35:21.196Z,90.38
2017-12-05T00:36:01.756Z,90.1
2017-12-05T00:36:42.311Z,90.1
2017-12-05T00:37:22.886Z,89.91
2017-12-05T00:38:03.450Z,90.19
2017-12-05T00:38:44.009Z,90.29
2017-12-05T00:39:24.575Z,90.48
2017-12-05T00:40:05.131Z,90.76
2017-12-05T00:40:45.707Z,90.57
2017-12-05T00:41:26.252Z,90.67
2017-12-05T00:42:06.825Z,90.29
2017-12-05T00:42:47.447Z,90.48
2017-12-05T00:43:27.994Z,90.38
2017-12-05T00:44:08.573Z,90.67
2017-12-05T00:44:49.141Z,90.76
2017-12-05T00:45:29.701Z,90.86
2017-12-05T00:46:10.270Z,91.24
2017-12-05T00:46:50.831Z,91.42
2017-12-05T00:47:31.397Z,91.24
2017-12-05T00:48:11.961Z,90.86
2017-12-05T00:48:52.527Z,91.05
2017-12-05T00:49:33.092Z,91.05
2017-12-05T00:50:13.662Z,91.05
2017-12-05T00:50:54.224Z,91.05
2017-12-05T00:51:34.788Z,91.05
2017-12-05T00:52:15.356Z,91.24
2017-12-05T00:52:55.916Z,90.95
2017-12-05T00:53:36.492Z,90.76
2017-12-05T00:54:17.075Z,90.57
2017-12-05T00:54:57.664Z,90.67
2017-12-05T00:55:38.249Z,90.86
2017-12-05T00:56:18.833Z,90.57
2017-12-05T00:56:59.405Z,90.86
2017-12-05T00:57:39.979Z,91.05
2017-12-05T00:58:20.576Z,91.24
2017-12-05T00:59:01.172Z,91.24
2017-12-05T00:59:41.748Z,91.05
2017-12-05T01:00:22.324Z,91.14
2017-12-05T01:01:02.889Z,91.42
2017-12-05T01:01:43.492Z,91.42
2017-12-05T01:02:24.075Z,91.42
2017-12-05T01:03:04.645Z,91.52
2017-12-05T01:03:45.229Z,91.52
2017-12-05T01:04:25.810Z,91.61
2017-12-05T01:05:06.376Z,91.42
2017-12-05T01:05:46.925Z,91.8
2017-12-05T01:06:27.486Z,91.52
2017-12-05T01:07:08.048Z,91.52
2017-12-05T01:07:48.605Z,91.33
2017-12-05T01:08:29.266Z,91.71
2017-12-05T01:09:09.824Z,91.71
2017-12-05T01:09:50.390Z,91.61
2017-12-05T01:10:30.946Z,91.8
2017-12-05T01:11:11.522Z,91.8
2017-12-05T01:11:52.086Z,91.8
2017-12-05T01:12:32.678Z,91.71
2017-12-05T01:13:13.245Z,91.9
2017-12-05T01:13:53.799Z,91.9
2017-12-05T01:14:34.394Z,91.24
2017-12-05T01:15:14.957Z,91.9
2017-12-05T01:15:55.523Z,91.99
2017-12-05T01:16:36.079Z,91.71
2017-12-05T01:17:16.681Z,91.8
2017-12-05T01:17:57.286Z,91.61
2017-12-05T01:18:37.886Z,91.99
2017-12-05T01:19:18.487Z,91.99
2017-12-05T01:20:05.592Z,92.09
2017-12-05T01:20:46.162Z,92.38
2017-12-05T01:21:26.726Z,92.28
2017-12-05T01:22:07.298Z,92.38
2017-12-05T01:22:47.862Z,92.47
2017-12-05T01:23:28.436Z,92.28
2017-12-05T01:24:08.999Z,92.76
2017-12-05T01:24:49.555Z,92.85
2017-12-05T01:25:30.140Z,92.9
2017-12-05T01:26:10.723Z,92.76
2017-12-05T01:26:51.277Z,93.04
2017-12-05T01:27:31.828Z,93.08
2017-12-05T01:28:12.402Z,93.08
2017-12-05T01:28:52.962Z,92.85
2017-12-05T01:29:34.092Z,93.08
2017-12-05T01:30:14.647Z,93.04
2017-12-05T01:30:55.198Z,93.56
2017-12-05T01:31:35.775Z,93.04
2017-12-05T01:32:16.330Z,93.27
2017-12-05T01:32:56.894Z,93.65
2017-12-05T01:33:37.474Z,93.89
2017-12-05T01:34:18.065Z,94.27
2017-12-05T01:34:58.630Z,94.32
2017-12-05T01:35:39.208Z,94.08
2017-12-05T01:36:19.799Z,93.8
2017-12-05T01:37:00.373Z,93.99
2017-12-05T01:37:40.930Z,94.46
2017-12-05T01:38:21.499Z,94.74
2017-12-05T01:39:02.064Z,94.42
2017-12-05T01:39:42.636Z,94.37
2017-12-05T01:40:23.196Z,94.08
2017-12-05T01:41:03.770Z,94.56
2017-12-05T01:41:44.357Z,94.84
2017-12-05T01:42:24.944Z,94.74
2017-12-05T01:43:05.506Z,94.84
2017-12-05T01:43:46.058Z,94.93
2017-12-05T01:44:26.653Z,94.79
2017-12-05T01:45:07.233Z,94.89
2017-12-05T01:45:47.803Z,94.6
2017-12-05T01:46:28.365Z,94.7
2017-12-05T01:47:08.959Z,94.79
2017-12-05T01:47:49.548Z,94.79
2017-12-05T01:48:30.117Z,94.79
2017-12-05T01:49:10.697Z,94.7
2017-12-05T01:49:51.270Z,94.79
2017-12-05T01:50:31.846Z,95.07
2017-12-05T01:51:12.454Z,94.98
2017-12-05T01:51:52.994Z,95.07
2017-12-05T01:52:33.574Z,94.79
2017-12-05T01:53:14.144Z,95.65
2017-12-05T01:53:54.720Z,95.55
2017-12-05T01:54:35.309Z,95.36
2017-12-05T01:55:15.876Z,95.93
2017-12-05T01:55:56.474Z,95.55
2017-12-05T01:56:37.040Z,95.27
2017-12-05T01:57:17.639Z,95.17
2017-12-05T01:57:58.212Z,95.36
2017-12-05T01:58:38.815Z,94.98
2017-12-05T01:59:19.411Z,96.03
2017-12-05T01:59:59.977Z,95.74
2017-12-05T02:00:40.543Z,95.84
2017-12-05T02:01:21.111Z,95.74
2017-12-05T02:02:01.676Z,95.46
2017-12-05T02:02:42.267Z,95.55
2017-12-05T02:03:22.829Z,95.55
2017-12-05T02:04:03.383Z,95.55
2017-12-05T02:04:43.959Z,95.74
2017-12-05T02:05:24.521Z,96.12
2017-12-05T02:06:05.081Z,95.74
2017-12-05T02:06:45.657Z,95.93
2017-12-05T02:07:26.217Z,95.84
2017-12-05T02:08:06.786Z,95.84
2017-12-05T02:08:47.389Z,96.31
2017-12-05T02:09:27.944Z,96.12
2017-12-05T02:10:08.538Z,95.84
2017-12-05T02:10:49.100Z,96.59
2017-12-05T02:11:29.664Z,96.59
2017-12-05T02:12:10.225Z,96.31
2017-12-05T02:12:50.807Z,96.59
2017-12-05T02:13:31.374Z,96.78
2017-12-05T02:14:11.929Z,96.78
2017-12-05T02:14:52.508Z,96.41
2017-12-05T02:15:33.072Z,96.69
2017-12-05T02:16:13.638Z,96.69
2017-12-05T02:16:54.208Z,97.36
2017-12-05T02:17:34.793Z,97.26
2017-12-05T02:18:15.355Z,97.17
2017-12-05T02:18:55.927Z,96.97
2017-12-05T02:19:36.511Z,97.17
2017-12-05T02:20:17.150Z,97.17
2017-12-05T02:20:57.722Z,97.17
2017-12-05T02:21:38.292Z,96.97
2017-12-05T02:22:18.873Z,97.17
2017-12-05T02:22:59.420Z,97.17
2017-12-05T02:23:39.981Z,96.88
2017-12-05T02:24:20.554Z,97.07
2017-12-05T02:25:01.123Z,97.64
2017-12-05T02:25:41.708Z,98.02
2017-12-05T02:26:22.284Z,97.64
2017-12-05T02:27:02.851Z,97.74
2017-12-05T02:27:43.399Z,97.55
2017-12-05T02:28:23.963Z,98.11
2017-12-05T02:29:04.530Z,98.02
2017-12-05T02:29:45.089Z,98.21
2017-12-05T02:30:25.667Z,98.11
2017-12-05T02:31:06.242Z,97.92
2017-12-05T02:31:46.793Z,97.92
2017-12-05T02:32:27.377Z,98.59
2017-12-05T02:33:07.973Z,98.49
2017-12-05T02:33:48.529Z,98.3
2017-12-05T02:34:29.118Z,98.49
2017-12-05T02:35:09.668Z,98.11
2017-12-05T02:35:50.240Z,98.97
2017-12-05T02:36:30.800Z,98.49
2017-12-05T02:37:11.370Z,98.68
2017-12-05T02:37:51.954Z,98.3
2017-12-05T02:38:32.523Z,98.49
2017-12-05T02:39:13.098Z,98.87
2017-12-05T02:39:53.674Z,98.97
2017-12-05T02:40:34.253Z,98.97
2017-12-05T02:41:14.837Z,98.87
2017-12-05T02:41:55.429Z,98.3
2017-12-05T02:42:35.988Z,98.97
2017-12-05T02:43:16.547Z,98.97
2017-12-05T02:43:57.105Z,98.87
2017-12-05T02:44:37.689Z,98.59
2017-12-05T02:45:18.265Z,98.97
2017-12-05T02:45:58.818Z,98.78
2017-12-05T02:46:39.380Z,99.54
2017-12-05T02:47:19.944Z,99.35
2017-12-05T02:48:00.517Z,99.16
2017-12-05T02:48:41.078Z,99.63
2017-12-05T02:49:21.652Z,99.73
2017-12-05T02:50:02.224Z,99.54
2017-12-05T02:50:42.791Z,99.63
2017-12-05T02:51:23.353Z,99.73
2017-12-05T02:52:03.964Z,99.44
2017-12-05T02:52:44.512Z,99.35
2017-12-05T02:53:25.066Z,99.63
2017-12-05T02:54:05.636Z,99.54
2017-12-05T02:54:46.211Z,99.54
2017-12-05T02:55:26.765Z,99.63
2017-12-05T02:56:07.322Z,99.99
2017-12-05T02:56:47.901Z,99.82
2017-12-05T02:57:28.470Z,99.82
2017-12-05T02:58:09.748Z,99.73
2017-12-05T02:58:51.910Z,99.54
2017-12-05T02:59:33.219Z,99.82
2017-12-05T03:00:14.121Z,99.73
2017-12-05T03:00:54.690Z,99.82
2017-12-05T03:01:35.276Z,99.82
2017-12-05T03:02:15.834Z,99.54
2017-12-05T03:02:56.413Z,99.82
2017-12-05T03:03:37.010Z,99.82
2017-12-05T03:04:17.583Z,99.99
2017-12-05T03:04:58.133Z,99.99
2017-12-05T03:05:38.701Z,99.63
2017-12-05T03:06:19.375Z,99.63
2017-12-05T03:06:59.990Z,99.91
2017-12-05T03:07:40.550Z,99.91
2017-12-05T03:08:21.125Z,99.99
2017-12-05T03:09:01.690Z,99.73
2017-12-05T03:09:42.251Z,99.99
2017-12-05T03:10:22.813Z,99.99
2017-12-05T03:11:03.367Z,99.99
2017-12-05T03:11:43.924Z,99.99
2017-12-05T03:12:24.508Z,99.99
2017-12-05T03:13:05.093Z,99.99
2017-12-05T03:13:45.662Z,99.99
2017-12-05T03:14:26.227Z,99.99
2017-12-05T03:15:06.802Z,99.99
2017-12-05T03:15:47.374Z,99.99
2017-12-05T03:16:27.937Z,99.99
2017-12-05T03:17:08.524Z,99.99
2017-12-05T03:17:49.127Z,99.99
2017-12-05T03:18:29.686Z,99.99
2017-12-05T03:19:10.246Z,99.99
2017-12-05T03:19:50.834Z,99.99
2017-12-05T03:20:31.392Z,99.99
2017-12-05T03:21:11.971Z,99.99
2017-12-05T03:21:52.590Z,99.99
2017-12-05T03:22:33.174Z,99.99
2017-12-05T03:23:13.749Z,99.99
2017-12-05T03:23:54.301Z,99.99
2017-12-05T03:24:34.877Z,99.99
2017-12-05T03:25:15.442Z,99.99
2017-12-05T03:25:56.031Z,99.99
2017-12-05T03:26:36.651Z,99.99
2017-12-05T03:27:17.261Z,99.99
2017-12-05T03:27:57.840Z,99.99
2017-12-05T03:28:38.404Z,99.99
2017-12-05T03:29:18.978Z,99.99
2017-12-05T03:29:59.544Z,99.99
2017-12-05T03:30:40.115Z,99.99
2017-12-05T03:31:20.694Z,99.99
2017-12-05T03:32:01.280Z,99.99
2017-12-05T03:32:41.850Z,99.99
2017-12-05T03:33:22.432Z,99.99
2017-12-05T03:34:03.004Z,99.99
2017-12-05T03:34:43.619Z,99.99
2017-12-05T03:35:24.171Z,99.99
2017-12-05T03:36:04.742Z,99.99
2017-12-05T03:36:45.319Z,99.99
2017-12-05T03:37:25.881Z,99.99
2017-12-05T03:38:06.448Z,99.99
2017-12-05T03:38:47.017Z,99.99
2017-12-05T03:39:27.588Z,99.99
2017-12-05T03:40:08.156Z,99.99
2017-12-05T03:40:48.778Z,99.99
2017-12-05T03:41:29.350Z,99.99
2017-12-05T03:42:09.921Z,99.99
2017-12-05T03:42:50.479Z,99.99
2017-12-05T03:43:31.055Z,99.99
2017-12-05T03:44:11.632Z,99.99
2017-12-05T03:44:52.198Z,99.99
2017-12-05T03:45:32.779Z,99.99
2017-12-05T03:46:13.371Z,99.99
2017-12-05T03:46:53.942Z,99.99
2017-12-05T03:47:34.525Z,99.99
2017-12-05T03:48:15.088Z,99.99
2017-12-05T03:48:55.633Z,99.99
2017-12-05T03:49:36.184Z,99.99
2017-12-05T03:50:16.779Z,99.99
2017-12-05T03:50:57.348Z,99.99
2017-12-05T03:51:37.931Z,99.99
2017-12-05T03:52:18.487Z,99.99
2017-12-05T03:52:59.072Z,99.99
2017-12-05T03:53:39.987Z,99.99
2017-12-05T03:54:20.568Z,99.99
2017-12-05T03:55:01.161Z,99.99
2017-12-05T03:55:41.707Z,99.99
2017-12-05T03:56:22.276Z,99.99
2017-12-05T03:57:02.849Z,99.99
2017-12-05T03:57:43.424Z,99.99
2017-12-05T03:58:23.985Z,99.99
2017-12-05T03:59:04.552Z,99.99
2017-12-05T03:59:45.108Z,99.99
2017-12-05T04:00:25.688Z,99.99
2017-12-05T04:01:06.253Z,99.99
2017-12-05T04:01:46.815Z,99.99
2017-12-05T04:02:27.383Z,99.99
2017-12-05T04:03:07.997Z,99.99
2017-12-05T04:03:48.561Z,99.99
2017-12-05T04:04:29.136Z,99.99
2017-12-05T04:05:09.710Z,99.99
2017-12-05T04:05:50.310Z,99.99
2017-12-05T04:06:30.874Z,99.99
2017-12-05T04:07:11.432Z,99.99
2017-12-05T04:07:51.991Z,99.99
2017-12-05T04:08:32.563Z,99.99
2017-12-05T04:09:13.134Z,99.99
2017-12-05T04:09:53.706Z,99.99
2017-12-05T04:10:34.259Z,99.99
2017-12-05T04:11:14.844Z,99.99
2017-12-05T04:11:55.382Z,99.99
2017-12-05T04:12:35.955Z,99.99
2017-12-05T04:13:16.518Z,99.99
2017-12-05T04:13:57.085Z,99.99
2017-12-05T04:14:37.673Z,99.99
2017-12-05T04:15:18.231Z,99.99
2017-12-05T04:15:58.791Z,99.99
2017-12-05T04:16:39.367Z,99.99
2017-12-05T04:17:19.941Z,99.99
2017-12-05T04:18:00.488Z,99.99
2017-12-05T04:18:41.048Z,99.99
2017-12-05T04:19:21.622Z,99.99
2017-12-05T04:20:02.205Z,99.99
2017-12-05T04:20:42.767Z,99.99
2017-12-05T04:21:23.341Z,99.99
2017-12-05T04:22:03.899Z,99.99
2017-12-05T04:22:44.477Z,99.99
2017-12-05T04:23:25.052Z,99.99
2017-12-05T04:24:05.624Z,99.99
2017-12-05T04:24:46.188Z,99.99
2017-12-05T04:25:26.762Z,99.99
2017-12-05T04:26:07.331Z,99.99
2017-12-05T04:26:47.898Z,99.99
2017-12-05T04:27:28.484Z,99.99
2017-12-05T04:28:09.061Z,99.99
2017-12-05T04:28:49.625Z,99.99
2017-12-05T04:29:30.201Z,99.99
2017-12-05T04:30:10.786Z,99.99
2017-12-05T04:30:51.397Z,99.99
2017-12-05T04:31:31.959Z,99.99
2017-12-05T04:32:12.523Z,99.99
2017-12-05T04:32:53.086Z,99.99
2017-12-05T04:33:33.651Z,99.99
2017-12-05T04:34:14.211Z,99.99
2017-12-05T04:34:54.779Z,99.99
2017-12-05T04:35:35.367Z,99.99
2017-12-05T04:36:15.931Z,99.99
2017-12-05T04:36:56.517Z,99.99
2017-12-05T04:37:37.082Z,99.99
2017-12-05T04:38:17.664Z,99.99
2017-12-05T04:38:58.236Z,99.99
2017-12-05T04:39:38.805Z,99.99
2017-12-05T04:40:19.376Z,99.99
2017-12-05T04:40:59.965Z,99.99
2017-12-05T04:41:40.537Z,99.99
2017-12-05T04:42:21.114Z,99.99
2017-12-05T04:43:01.682Z,99.99
2017-12-05T04:43:42.275Z,99.99
2017-12-05T04:44:22.853Z,99.99
2017-12-05T04:45:03.415Z,99.99
2017-12-05T04:45:43.988Z,99.99
2017-12-05T04:46:24.561Z,99.99
2017-12-05T04:47:05.127Z,99.99
2017-12-05T04:47:45.685Z,99.99
2017-12-05T04:48:26.261Z,99.99
2017-12-05T04:49:06.844Z,99.99
2017-12-05T04:49:47.410Z,99.99
2017-12-05T04:50:27.981Z,99.99
2017-12-05T04:51:08.566Z,99.99
2017-12-05T04:51:49.134Z,99.99
2017-12-05T04:52:29.694Z,99.99
2017-12-05T04:53:10.284Z,99.99
2017-12-05T04:53:50.861Z,99.99
2017-12-05T04:54:31.453Z,99.99
2017-12-05T04:55:12.019Z,99.99
2017-12-05T04:55:52.599Z,99.99
2017-12-05T04:56:33.166Z,99.99
2017-12-05T04:57:13.724Z,99.99
2017-12-05T04:57:54.332Z,99.99
2017-12-05T04:58:34.905Z,99.99
2017-12-05T04:59:15.492Z,99.99
2017-12-05T04:59:56.045Z,99.99
2017-12-05T05:00:36.610Z,99.99
2017-12-05T05:01:17.209Z,99.99
2017-12-05T05:01:57.822Z,99.99
2017-12-05T05:02:38.400Z,99.99
2017-12-05T05:03:18.976Z,99.99
2017-12-05T05:03:59.540Z,99.99
2017-12-05T05:04:40.117Z,99.99
2017-12-05T05:05:20.693Z,99.99
2017-12-05T05:06:01.258Z,99.99
2017-12-05T05:06:41.853Z,99.99
2017-12-05T05:07:22.416Z,99.99
2017-12-05T05:08:02.987Z,99.99
2017-12-05T05:08:43.567Z,99.99
2017-12-05T05:09:24.122Z,99.99
2017-12-05T05:10:04.684Z,99.99
2017-12-05T05:10:45.255Z,99.99
2017-12-05T05:11:25.826Z,99.99
2017-12-05T05:12:06.404Z,99.99
2017-12-05T05:12:46.981Z,99.99
2017-12-05T05:13:27.537Z,99.99
2017-12-05T05:14:08.120Z,99.99
2017-12-05T05:14:48.694Z,99.99
2017-12-05T05:15:29.259Z,99.99
2017-12-05T05:16:09.821Z,99.99
2017-12-05T05:16:50.387Z,99.99
2017-12-05T05:17:30.954Z,99.99
2017-12-05T05:18:11.515Z,99.99
2017-12-05T05:18:52.079Z,99.99
2017-12-05T05:19:32.656Z,99.99
2017-12-05T05:20:13.218Z,99.99
2017-12-05T05:20:53.773Z,99.99
2017-12-05T05:21:34.331Z,99.99
2017-12-05T05:22:14.895Z,99.99
2017-12-05T05:22:55.469Z,99.99
2017-12-05T05:23:36.038Z,99.99
2017-12-05T05:24:16.594Z,99.99
2017-12-05T05:24:57.178Z,99.99
2017-12-05T05:25:37.740Z,99.99
2017-12-05T05:26:18.309Z,99.99
2017-12-05T05:26:58.884Z,99.99
2017-12-05T05:27:39.453Z,99.99
2017-12-05T05:28:20.036Z,99.99
2017-12-05T05:29:00.667Z,99.99
2017-12-05T05:29:41.252Z,99.99
2017-12-05T05:30:21.817Z,99.99
2017-12-05T05:31:02.395Z,99.99
2017-12-05T05:31:42.972Z,99.99
2017-12-05T05:32:23.535Z,99.99
2017-12-05T05:33:04.112Z,99.99
2017-12-05T05:33:44.676Z,99.99
2017-12-05T05:34:25.248Z,99.99
2017-12-05T05:35:05.813Z,99.99
2017-12-05T05:35:46.376Z,99.99
2017-12-05T05:36:26.948Z,99.99
2017-12-05T05:37:07.517Z,99.99
2017-12-05T05:37:48.083Z,99.99
2017-12-05T05:38:28.658Z,99.99
2017-12-05T05:39:09.232Z,99.99
2017-12-05T05:39:49.805Z,99.99
2017-12-05T05:40:30.377Z,99.99
2017-12-05T05:41:10.956Z,99.99
2017-12-05T05:41:51.511Z,99.99
2017-12-05T05:42:32.071Z,99.99
2017-12-05T05:43:12.658Z,99.99
2017-12-05T05:43:53.240Z,99.99
2017-12-05T05:44:33.840Z,99.99
2017-12-05T05:45:14.415Z,99.99
2017-12-05T05:45:54.971Z,99.99
2017-12-05T05:46:35.537Z,99.99
2017-12-05T05:47:16.099Z,99.99
2017-12-05T05:47:56.672Z,99.99
2017-12-05T05:48:37.229Z,99.99
2017-12-05T05:49:17.779Z,99.99
2017-12-05T05:49:58.376Z,99.99
2017-12-05T05:50:38.936Z,99.99
2017-12-05T05:51:19.483Z,99.99
2017-12-05T05:52:00.048Z,99.99
2017-12-05T05:52:40.620Z,99.99
2017-12-05T05:53:21.203Z,99.99
2017-12-05T05:54:01.785Z,99.99
2017-12-05T05:54:42.391Z,99.99
2017-12-05T05:55:22.991Z,99.99
2017-12-05T05:56:03.584Z,99.99
2017-12-05T05:56:44.149Z,99.99
2017-12-05T05:57:24.719Z,99.99
2017-12-05T05:58:05.359Z,99.99
2017-12-05T05:58:46.206Z,99.99
2017-12-05T05:59:27.002Z,99.99
2017-12-05T06:00:07.739Z,99.99
2017-12-05T06:00:48.728Z,99.99
2017-12-05T06:01:29.822Z,99.99
2017-12-05T06:02:11.790Z,99.99
2017-12-05T06:02:52.508Z,99.99
2017-12-05T06:03:33.296Z,99.99
2017-12-05T06:04:13.977Z,99.99
2017-12-05T06:04:54.948Z,99.99
2017-12-05T06:05:35.903Z,99.99
2017-12-05T06:06:16.526Z,99.99
2017-12-05T06:06:57.434Z,99.99
2017-12-05T06:07:38.531Z,99.99
2017-12-05T06:08:19.282Z,99.99
2017-12-05T06:09:00.460Z,99.99
2017-12-05T06:09:41.327Z,99.99
2017-12-05T06:10:23.181Z,99.99
2017-12-05T06:11:03.900Z,99.99
2017-12-05T06:11:44.771Z,99.99
2017-12-05T06:12:25.602Z,99.99
2017-12-05T06:13:06.339Z,99.99
2017-12-05T06:13:46.914Z,99.99
2017-12-05T06:14:27.507Z,99.99
2017-12-05T06:15:08.124Z,99.99
2017-12-05T06:15:48.688Z,99.99
2017-12-05T06:16:29.262Z,99.99
2017-12-05T06:17:09.825Z,99.99
2017-12-05T06:17:50.399Z,99.99
2017-12-05T06:18:30.976Z,99.99
2017-12-05T06:19:11.774Z,99.99
2017-12-05T06:19:52.333Z,99.99
2017-12-05T06:20:32.899Z,99.99
2017-12-05T06:21:13.765Z,99.99
2017-12-05T06:21:54.433Z,99.99
2017-12-05T06:22:35.011Z,99.99
2017-12-05T06:23:15.571Z,99.99
2017-12-05T06:23:56.174Z,99.99
2017-12-05T06:24:36.775Z,99.99
2017-12-05T06:25:17.334Z,99.99
2017-12-05T06:25:57.894Z,99.99
2017-12-05T06:26:38.478Z,99.99
2017-12-05T06:27:19.054Z,99.99
2017-12-05T06:27:59.639Z,99.99
2017-12-05T06:28:40.203Z,99.99
2017-12-05T06:29:20.774Z,99.99
2017-12-05T06:30:01.343Z,99.99
2017-12-05T06:30:41.919Z,99.99
2017-12-05T06:31:22.481Z,99.99
2017-12-05T06:32:03.055Z,99.99
2017-12-05T06:32:43.613Z,99.99
2017-12-05T06:33:24.183Z,99.99
2017-12-05T06:34:04.797Z,99.99
2017-12-05T06:34:45.361Z,99.99
2017-12-05T06:35:25.958Z,99.99
2017-12-05T06:36:06.500Z,99.99
2017-12-05T06:36:47.112Z,99.99
2017-12-05T06:37:27.728Z,99.99
2017-12-05T06:38:08.288Z,99.99
2017-12-05T06:38:48.850Z,99.99
2017-12-05T06:39:29.464Z,99.99
2017-12-05T06:40:10.033Z,99.99
2017-12-05T06:40:50.608Z,99.99
2017-12-05T06:41:31.179Z,99.99
2017-12-05T06:42:11.746Z,99.99
2017-12-05T06:42:52.372Z,99.99
2017-12-05T06:43:32.936Z,99.99
2017-12-05T06:44:13.508Z,99.99
2017-12-05T06:44:54.088Z,99.99
2017-12-05T06:45:34.641Z,99.99
2017-12-05T06:46:15.222Z,99.99
2017-12-05T06:46:55.789Z,99.99
2017-12-05T06:47:36.384Z,99.99
2017-12-05T06:48:16.978Z,99.99
2017-12-05T06:48:57.549Z,99.99
2017-12-05T06:49:38.115Z,99.99
2017-12-05T06:50:18.772Z,99.99
2017-12-05T06:50:59.371Z,99.99
2017-12-05T06:51:39.943Z,99.99
2017-12-05T06:52:20.508Z,99.99
2017-12-05T06:53:01.080Z,99.99
2017-12-05T06:53:41.657Z,99.99
2017-12-05T06:54:22.241Z,99.99
2017-12-05T06:55:02.854Z,99.99
2017-12-05T06:55:43.431Z,99.99
2017-12-05T06:56:24.024Z,99.99
2017-12-05T06:57:04.616Z,99.99
2017-12-05T06:57:45.203Z,99.99
2017-12-05T06:58:25.795Z,99.99
2017-12-05T06:59:06.389Z,99.99
2017-12-05T06:59:46.964Z,99.99
2017-12-05T07:00:27.535Z,99.99
2017-12-05T07:01:08.122Z,99.99
2017-12-05T07:01:48.697Z,99.99
2017-12-05T07:02:29.377Z,99.99
2017-12-05T07:03:09.961Z,99.99
2017-12-05T07:03:50.536Z,99.99
2017-12-05T07:04:31.140Z,99.99
2017-12-05T07:05:11.710Z,99.99
2017-12-05T07:05:52.277Z,99.99
2017-12-05T07:06:32.850Z,99.99
2017-12-05T07:07:13.426Z,99.99
2017-12-05T07:07:53.996Z,99.99
2017-12-05T07:08:34.569Z,99.99
2017-12-05T07:09:15.694Z,99.99
2017-12-05T07:09:56.315Z,99.99
2017-12-05T07:10:36.892Z,99.99
2017-12-05T07:11:17.476Z,99.99
2017-12-05T07:11:58.092Z,99.99
2017-12-05T07:12:38.650Z,99.99
2017-12-05T07:13:19.233Z,99.99
2017-12-05T07:13:59.896Z,99.99
2017-12-05T07:14:40.458Z,99.99
2017-12-05T07:15:21.054Z,99.99
2017-12-05T07:16:01.623Z,99.99
2017-12-05T07:16:42.214Z,99.99
2017-12-05T07:17:22.841Z,99.99
2017-12-05T07:18:03.443Z,99.99
2017-12-05T07:18:44.056Z,99.99
2017-12-05T07:19:24.620Z,99.99
2017-12-05T07:20:05.197Z,99.99
2017-12-05T07:20:45.805Z,99.99
2017-12-05T07:21:26.385Z,99.99
2017-12-05T07:22:06.970Z,99.99
2017-12-05T07:22:47.554Z,99.99
2017-12-05T07:23:28.158Z,99.99
2017-12-05T07:24:08.745Z,99.99
2017-12-05T07:24:49.335Z,99.99
2017-12-05T07:25:29.946Z,99.99
2017-12-05T07:26:10.523Z,99.99
2017-12-05T07:26:51.088Z,99.99
2017-12-05T07:27:31.651Z,99.99
2017-12-05T07:28:12.232Z,99.99
2017-12-05T07:28:52.858Z,99.99
2017-12-05T07:29:33.431Z,99.99
2017-12-05T07:30:14.037Z,99.99
2017-12-05T07:30:54.625Z,99.99
2017-12-05T07:31:35.193Z,99.99
2017-12-05T07:32:15.767Z,99.99
2017-12-05T07:32:56.350Z,99.99
2017-12-05T07:33:36.923Z,99.99
2017-12-05T07:34:17.526Z,99.99
2017-12-05T07:34:58.099Z,99.99
2017-12-05T07:35:38.677Z,99.99
2017-12-05T07:36:19.264Z,99.99
2017-12-05T07:36:59.850Z,99.99
2017-12-05T07:37:40.430Z,99.99
2017-12-05T07:38:20.999Z,99.99
2017-12-05T07:39:01.590Z,99.99
2017-12-05T07:39:42.205Z,99.99
2017-12-05T07:40:22.783Z,99.99
2017-12-05T07:41:03.390Z,99.99
2017-12-05T07:41:44.037Z,99.99
2017-12-05T07:42:24.613Z,99.99
2017-12-05T07:43:05.183Z,99.99
2017-12-05T07:43:45.750Z,99.99
2017-12-05T07:44:26.335Z,99.99
2017-12-05T07:45:06.907Z,99.99
2017-12-05T07:45:47.507Z,99.99
2017-12-05T07:46:28.072Z,99.99
2017-12-05T07:47:08.653Z,99.99
2017-12-05T07:47:49.231Z,99.99
2017-12-05T07:48:29.824Z,99.99
2017-12-05T07:49:10.398Z,99.99
2017-12-05T07:49:52.033Z,99.99
2017-12-05T07:50:32.144Z,99.99
2017-12-05T07:51:12.717Z,99.99
2017-12-05T07:51:53.281Z,99.99
2017-12-05T07:52:33.917Z,99.99
2017-12-05T07:53:14.496Z,99.99
2017-12-05T07:53:55.119Z,99.99
2017-12-05T07:54:35.640Z,99.99
2017-12-05T07:55:16.226Z,99.99
2017-12-05T07:55:56.800Z,99.99
2017-12-05T07:56:37.353Z,99.99
2017-12-05T07:57:17.947Z,99.99
2017-12-05T07:57:59.248Z,99.99
2017-12-05T07:58:39.860Z,99.99
2017-12-05T07:59:20.479Z,99.99
2017-12-05T08:00:01.078Z,99.99
2017-12-05T08:00:41.641Z,99.99
2017-12-05T08:01:22.248Z,99.99
2017-12-05T08:02:02.821Z,99.99
2017-12-05T08:02:43.379Z,99.99
2017-12-05T08:03:24.180Z,99.99
2017-12-05T08:04:04.779Z,99.99
2017-12-05T08:04:45.442Z,99.99
2017-12-05T08:05:26.717Z,99.99
2017-12-05T08:06:07.135Z,99.98
2017-12-05T08:06:47.702Z,99.22
2017-12-05T08:07:28.290Z,98.46
2017-12-05T08:08:08.866Z,98.74
2017-12-05T08:08:49.440Z,97.88
2017-12-05T08:09:30.014Z,97.41
2017-12-05T08:10:10.643Z,96.74
2017-12-05T08:10:51.244Z,96.08
2017-12-05T08:11:32.051Z,95.51
2017-12-05T08:12:14.602Z,95.98
2017-12-05T08:12:55.177Z,96.17
2017-12-05T08:13:35.746Z,95.89
2017-12-05T08:14:16.307Z,96.12
2017-12-05T08:14:56.875Z,96.74
2017-12-05T08:15:37.468Z,96.94
2017-12-05T08:16:18.292Z,97.13
2017-12-05T08:16:58.892Z,97.22
2017-12-05T08:17:39.486Z,97.27
2017-12-05T08:18:20.048Z,97.74
2017-12-05T08:19:00.630Z,97.93
2017-12-05T08:19:41.216Z,97.17
2017-12-05T08:20:21.819Z,98.41
2017-12-05T08:21:02.397Z,98.22
2017-12-05T08:21:42.992Z,98.69
2017-12-05T08:22:23.603Z,98.31
2017-12-05T08:24:41.575Z,98.79
2017-12-05T08:25:22.133Z,98.79
2017-12-05T08:26:02.701Z,99.26
2017-12-05T08:26:43.269Z,99.45
2017-12-05T08:27:23.875Z,99.64
2017-12-05T08:28:04.440Z,99.84
2017-12-05T08:28:44.995Z,99.99
2017-12-05T08:29:25.576Z,99.99
2017-12-05T08:30:06.153Z,99.99
2017-12-05T08:30:46.723Z,99.99
2017-12-05T08:31:27.292Z,99.99
2017-12-05T08:32:07.870Z,99.99
2017-12-05T08:32:48.528Z,99.99
2017-12-05T08:33:29.138Z,99.99
2017-12-05T08:34:09.698Z,99.99
2017-12-05T08:34:51.064Z,99.99
2017-12-05T08:35:31.639Z,99.99
2017-12-05T08:36:12.207Z,99.99
2017-12-05T08:36:52.787Z,99.99
2017-12-05T08:37:33.357Z,99.99
2017-12-05T08:38:13.935Z,99.99
2017-12-05T08:38:54.514Z,99.99
2017-12-05T08:39:35.073Z,99.99
2017-12-05T08:40:15.628Z,99.99
2017-12-05T08:40:56.220Z,99.99
2017-12-05T08:41:36.796Z,99.99
2017-12-05T08:42:17.381Z,99.99
2017-12-05T08:42:57.987Z,99.99
2017-12-05T08:43:38.547Z,99.99
2017-12-05T08:44:19.153Z,99.99
2017-12-05T08:44:59.741Z,99.99
2017-12-05T08:45:40.322Z,99.99